Time;durP1;ratioP1;P1;durP2;ratioP2;P2;SDS_P1;SDS_P2;PMS_P1;PMS_P2;Temp;Humidity;BMP_temperature;BMP_pressure;BME280_temperature;BME280_humidity;BME280_pressure;Samples;Min_cycle;Max_cycle;Signal;HPM_P1;HPM_P2
2022/04/24 00:01:30;;;;;;;0.10;0.10;;;;;;;;;;4945840;28;20317;-82
2022/04/24 00:03:56;;;;;;;0.00;0.00;;;;;;;;;;4940641;28;20027;-81
2022/04/24 00:06:22;;;;;;;0.10;0.10;;;;;;;;;;4948889;28;20041;-82
2022/04/24 00:08:49;;;;;;;0.10;0.10;;;;;;;;;;4945606;28;20291;-83
2022/04/24 00:11:15;;;;;;;0.10;0.10;;;;;;;;;;4945500;28;20652;-83
2022/04/24 00:13:42;;;;;;;0.10;0.10;;;;;;;;;;4945242;28;20074;-83
2022/04/24 00:16:08;;;;;;;0.00;0.00;;;;;;;;;;4943330;28;20054;-83
2022/04/24 00:18:35;;;;;;;0.10;0.10;;;;;;;;;;4945964;28;20052;-83
2022/04/24 00:21:01;;;;;;;0.00;0.00;;;;;;;;;;4948627;28;20051;-82
2022/04/24 00:23:27;;;;;;;0.10;0.10;;;;;;;;;;4948926;28;20035;-82
2022/04/24 00:25:54;;;;;;;0.10;0.10;;;;;;;;;;4948671;28;20035;-83
2022/04/24 00:28:20;;;;;;;0.10;0.10;;;;;;;;;;4947139;28;20027;-82
2022/04/24 00:30:46;;;;;;;0.10;0.10;;;;;;;;;;4946876;28;20543;-82
2022/04/24 00:33:12;;;;;;;0.00;0.00;;;;;;;;;;4950547;28;20905;-81
2022/04/24 00:35:38;;;;;;;0.00;0.00;;;;;;;;;;4948732;28;20058;-81
2022/04/24 00:38:04;;;;;;;0.00;0.00;;;;;;;;;;4948525;28;20039;-81
2022/04/24 00:40:30;;;;;;;0.00;0.00;;;;;;;;;;4948551;28;20041;-81
2022/04/24 00:42:56;;;;;;;0.00;0.00;;;;;;;;;;4944562;28;20031;-82
2022/04/24 00:45:22;;;;;;;0.00;0.00;;;;;;;;;;4950561;28;20039;-83
2022/04/24 00:47:48;;;;;;;0.00;0.00;;;;;;;;;;4948797;28;20035;-82
2022/04/24 00:50:14;;;;;;;0.13;0.13;;;;;;;;;;4948734;28;20314;-82
2022/04/24 00:52:40;;;;;;;0.08;0.08;;;;;;;;;;4948620;28;20162;-82
2022/04/24 00:55:07;;;;;;;0.00;0.00;;;;;;;;;;4947174;28;20044;-82
2022/04/24 00:57:33;;;;;;;0.00;0.00;;;;;;;;;;4947760;28;20906;-82
2022/04/24 00:59:59;;;;;;;0.03;0.03;;;;;;;;;;4949447;28;20039;-81
2022/04/24 01:02:25;;;;;;;0.00;0.00;;;;;;;;;;4948324;28;20039;-82
2022/04/24 01:04:51;;;;;;;0.00;0.00;;;;;;;;;;4947069;28;20306;-82
2022/04/24 01:07:17;;;;;;;0.00;0.00;;;;;;;;;;4947319;28;20031;-84
2022/04/24 01:09:44;;;;;;;0.00;0.00;;;;;;;;;;4946783;28;20074;-82
2022/04/24 01:12:10;;;;;;;0.10;0.10;;;;;;;;;;4949969;28;20031;-82
2022/04/24 01:14:36;;;;;;;0.20;0.20;;;;;;;;;;4948264;28;20046;-81
2022/04/24 01:17:04;;;;;;;0.10;0.10;;;;;;;;;;4948307;28;20034;-82
2022/04/24 01:19:30;;;;;;;0.00;0.00;;;;;;;;;;4949417;28;20455;-83
2022/04/24 01:21:57;;;;;;;0.10;0.10;;;;;;;;;;4944118;28;20092;-82
2022/04/24 01:24:23;;;;;;;0.00;0.00;;;;;;;;;;4950953;28;20098;-82
2022/04/24 01:26:49;;;;;;;;;;;;;;;;;;4948322;28;20047;-81
2022/04/24 01:29:16;;;;;;;0.10;0.10;;;;;;;;;;4952534;28;20395;-82
2022/04/24 01:31:45;;;;;;;0.10;0.10;;;;;;;;;;4956047;28;21109;-82
2022/04/24 01:34:12;;;;;;;0.00;0.00;;;;;;;;;;4944879;28;20039;-82
2022/04/24 01:36:39;;;;;;;0.10;0.10;;;;;;;;;;4947664;28;20465;-82
2022/04/24 01:39:05;;;;;;;0.00;0.00;;;;;;;;;;4949196;28;20055;-81
2022/04/24 01:41:31;;;;;;;0.10;0.10;;;;;;;;;;4948356;28;20039;-80
2022/04/24 01:43:58;;;;;;;0.03;0.03;;;;;;;;;;4948903;28;20039;-81
2022/04/24 01:46:24;;;;;;;0.10;0.10;;;;;;;;;;4947099;28;20027;-81
2022/04/24 01:48:50;;;;;;;0.10;0.10;;;;;;;;;;4943969;28;20111;-82
2022/04/24 01:51:16;;;;;;;0.10;0.10;;;;;;;;;;4950123;28;20576;-80
2022/04/24 01:53:43;;;;;;;0.10;0.10;;;;;;;;;;4947732;28;20031;-81
2022/04/24 01:56:09;;;;;;;0.00;0.00;;;;;;;;;;4943882;28;20071;-83
2022/04/24 01:58:35;;;;;;;0.10;0.10;;;;;;;;;;4949028;28;20022;-82
2022/04/24 02:01:01;;;;;;;0.00;0.00;;;;;;;;;;4942756;28;20042;-83
2022/04/24 02:03:28;;;;;;;0.10;0.10;;;;;;;;;;4960993;28;20069;-81
2022/04/24 02:05:54;;;;;;;0.00;0.00;;;;;;;;;;4953254;28;20178;-81
2022/04/24 02:08:21;;;;;;;0.10;0.10;;;;;;;;;;4951642;28;20031;-81
2022/04/24 02:10:47;;;;;;;0.07;0.07;;;;;;;;;;4946934;28;20081;-82
2022/04/24 02:13:13;;;;;;;0.00;0.00;;;;;;;;;;4945325;28;20046;-81
2022/04/24 02:15:39;;;;;;;0.10;0.10;;;;;;;;;;4946651;28;20027;-81
2022/04/24 02:18:05;;;;;;;0.00;0.00;;;;;;;;;;4947679;28;20039;-81
2022/04/24 02:20:31;;;;;;;0.10;0.10;;;;;;;;;;4946804;28;20077;-81
2022/04/24 02:22:58;;;;;;;0.00;0.00;;;;;;;;;;4947336;28;20382;-82
2022/04/24 02:25:27;;;;;;;0.00;0.00;;;;;;;;;;4947043;28;20035;-82
2022/04/24 02:27:54;;;;;;;0.00;0.00;;;;;;;;;;4928328;29;20079;-82
2022/04/24 02:30:21;;;;;;;0.00;0.00;;;;;;;;;;4950323;28;20031;-83
2022/04/24 02:32:47;;;;;;;0.20;0.20;;;;;;;;;;4955339;28;20375;-82
2022/04/24 02:35:13;;;;;;;0.10;0.10;;;;;;;;;;4960506;28;20034;-82
2022/04/24 02:37:39;;;;;;;0.00;0.00;;;;;;;;;;4956146;28;20037;-82
2022/04/24 02:40:09;;;;;;;0.00;0.00;;;;;;;;;;4943936;28;20502;-82
2022/04/24 02:42:36;;;;;;;0.00;0.00;;;;;;;;;;4947438;28;20556;-84
2022/04/24 02:45:02;;;;;;;;;;;;;;;;;;4947615;28;20043;-83
2022/04/24 02:47:28;;;;;;;0.10;0.10;;;;;;;;;;4946321;28;20582;-82
2022/04/24 02:49:54;;;;;;;0.00;0.00;;;;;;;;;;4946779;28;20062;-83
2022/04/24 02:52:20;;;;;;;0.10;0.10;;;;;;;;;;4947653;28;20066;-82
2022/04/24 02:54:46;;;;;;;0.00;0.00;;;;;;;;;;4944720;28;20031;-82
2022/04/24 02:57:12;;;;;;;0.00;0.00;;;;;;;;;;4948806;28;20046;-82
2022/04/24 02:59:42;;;;;;;0.10;0.10;;;;;;;;;;4947067;28;20748;-84
2022/04/24 03:02:09;;;;;;;0.00;0.00;;;;;;;;;;4954074;28;20030;-83
2022/04/24 03:04:35;;;;;;;0.10;0.10;;;;;;;;;;4946356;28;20031;-83
2022/04/24 03:07:01;;;;;;;0.00;0.00;;;;;;;;;;4942212;28;20052;-84
2022/04/24 03:09:27;;;;;;;0.10;0.10;;;;;;;;;;4948352;28;20767;-83
2022/04/24 03:11:53;;;;;;;0.00;0.00;;;;;;;;;;4946369;28;20042;-83
2022/04/24 03:14:19;;;;;;;0.00;0.00;;;;;;;;;;4946206;28;20563;-81
2022/04/24 03:16:45;;;;;;;0.10;0.10;;;;;;;;;;4946064;28;20027;-80
2022/04/24 03:19:11;;;;;;;0.00;0.00;;;;;;;;;;4942512;28;20083;-81
2022/04/24 03:21:37;;;;;;;0.10;0.10;;;;;;;;;;4943973;28;20475;-81
2022/04/24 03:24:03;;;;;;;0.10;0.10;;;;;;;;;;4946922;28;20111;-81
2022/04/24 03:26:29;;;;;;;0.10;0.10;;;;;;;;;;4947199;28;20122;-81
2022/04/24 03:28:57;;;;;;;0.10;0.10;;;;;;;;;;4947038;28;20115;-81
2022/04/24 03:31:23;;;;;;;0.10;0.10;;;;;;;;;;4945424;28;20043;-81
2022/04/24 03:33:49;;;;;;;0.00;0.00;;;;;;;;;;4943400;28;20023;-81
2022/04/24 03:36:15;;;;;;;0.10;0.10;;;;;;;;;;4948674;28;20062;-81
2022/04/24 03:38:41;;;;;;;0.00;0.00;;;;;;;;;;4946382;28;20185;-82
2022/04/24 03:41:08;;;;;;;0.10;0.10;;;;;;;;;;4946182;28;20055;-82
2022/04/24 03:43:34;;;;;;;0.10;0.10;;;;;;;;;;4946174;28;20201;-82
2022/04/24 03:46:00;;;;;;;0.00;0.00;;;;;;;;;;4942415;28;20043;-81
2022/04/24 03:48:26;;;;;;;0.10;0.10;;;;;;;;;;4948102;28;20784;-81
2022/04/24 03:50:52;;;;;;;0.00;0.00;;;;;;;;;;4947637;28;20058;-81
2022/04/24 03:53:18;;;;;;;0.03;0.03;;;;;;;;;;4946127;28;20492;-82
2022/04/24 03:55:45;;;;;;;0.10;0.10;;;;;;;;;;4947762;28;20030;-81
2022/04/24 03:58:12;;;;;;;0.00;0.00;;;;;;;;;;4947474;28;20051;-81
2022/04/24 04:00:38;;;;;;;0.03;0.03;;;;;;;;;;4949122;28;20157;-81
2022/04/24 04:03:04;;;;;;;0.10;0.10;;;;;;;;;;4950800;28;20043;-81
2022/04/24 04:05:30;;;;;;;0.00;0.00;;;;;;;;;;4949143;28;20630;-83
2022/04/24 04:07:56;;;;;;;0.00;0.00;;;;;;;;;;4949580;28;20626;-81
2022/04/24 04:10:23;;;;;;;0.03;0.03;;;;;;;;;;4948449;28;20034;-81
2022/04/24 04:12:51;;;;;;;0.10;0.10;;;;;;;;;;4946804;28;20031;-82
2022/04/24 04:15:17;;;;;;;0.10;0.10;;;;;;;;;;4952545;28;20118;-82
2022/04/24 04:17:44;;;;;;;0.10;0.10;;;;;;;;;;4948557;28;20106;-81
2022/04/24 04:20:11;;;;;;;0.10;0.10;;;;;;;;;;4948677;28;20307;-80
2022/04/24 04:22:55;;;;;;;0.00;0.00;;;;;;;;;;4949799;28;20031;-81
2022/04/24 04:25:23;;;;;;;0.00;0.00;;;;;;;;;;4948354;28;20045;-81
2022/04/24 04:27:50;;;;;;;0.00;0.00;;;;;;;;;;4946358;28;20119;-81
2022/04/24 04:30:16;;;;;;;0.10;0.10;;;;;;;;;;4950319;28;20493;-81
2022/04/24 04:32:42;;;;;;;0.10;0.10;;;;;;;;;;4949578;28;20928;-81
2022/04/24 04:35:09;;;;;;;0.10;0.10;;;;;;;;;;4948763;28;20254;-84
2022/04/24 04:37:39;;;;;;;0.10;0.10;;;;;;;;;;4948864;28;20084;-83
2022/04/24 04:40:06;;;;;;;0.00;0.00;;;;;;;;;;4945931;28;20047;-84
2022/04/24 04:42:32;;;;;;;;;;;;;;;;;;4949426;28;20452;-82
2022/04/24 04:44:59;;;;;;;0.10;0.10;;;;;;;;;;4951084;28;19911;-82
2022/04/24 04:47:25;;;;;;;0.00;0.00;;;;;;;;;;4947342;28;20118;-83
2022/04/24 04:49:51;;;;;;;0.10;0.10;;;;;;;;;;4947901;28;20110;-80
2022/04/24 04:52:17;;;;;;;0.10;0.10;;;;;;;;;;4948282;28;20121;-81
2022/04/24 04:54:43;;;;;;;0.10;0.10;;;;;;;;;;4947721;28;20143;-82
2022/04/24 04:57:09;;;;;;;0.10;0.10;;;;;;;;;;4948688;28;20358;-82
2022/04/24 04:59:35;;;;;;;0.10;0.10;;;;;;;;;;4948384;28;20343;-82
2022/04/24 05:02:01;;;;;;;0.10;0.10;;;;;;;;;;4948286;28;20508;-82
2022/04/24 05:04:27;;;;;;;0.10;0.10;;;;;;;;;;4949400;28;20034;-82
2022/04/24 05:06:53;;;;;;;0.10;0.10;;;;;;;;;;4943695;28;20035;-82
2022/04/24 05:09:19;;;;;;;0.00;0.00;;;;;;;;;;4950256;28;20811;-82
2022/04/24 05:11:45;;;;;;;0.10;0.10;;;;;;;;;;4948171;28;20024;-82
2022/04/24 05:14:11;;;;;;;0.03;0.03;;;;;;;;;;4948741;28;20043;-84
2022/04/24 05:16:38;;;;;;;0.05;0.05;;;;;;;;;;4948230;28;20484;-81
2022/04/24 05:19:07;;;;;;;0.00;0.00;;;;;;;;;;4944057;28;20066;-83
2022/04/24 05:21:33;;;;;;;0.00;0.00;;;;;;;;;;4948148;28;20130;-82
2022/04/24 05:24:00;;;;;;;0.20;0.20;;;;;;;;;;4949326;28;20027;-81
2022/04/24 05:26:26;;;;;;;0.10;0.10;;;;;;;;;;4948321;28;20643;-81
2022/04/24 05:28:52;;;;;;;0.38;0.38;;;;;;;;;;4948042;28;20489;-81
2022/04/24 05:31:19;;;;;;;0.10;0.10;;;;;;;;;;4946854;28;20033;-81
2022/04/24 05:33:45;;;;;;;0.30;0.30;;;;;;;;;;4946276;28;20074;-81
2022/04/24 05:36:11;;;;;;;0.00;0.00;;;;;;;;;;4949890;28;20279;-81
2022/04/24 05:38:37;;;;;;;0.10;0.10;;;;;;;;;;4947575;28;20053;-81
2022/04/24 05:41:03;;;;;;;0.00;0.00;;;;;;;;;;4947614;28;20781;-81
2022/04/24 05:43:29;;;;;;;0.00;0.00;;;;;;;;;;4947508;28;20150;-80
2022/04/24 05:45:55;;;;;;;0.00;0.00;;;;;;;;;;4943546;28;20035;-81
2022/04/24 05:48:22;;;;;;;0.10;0.10;;;;;;;;;;4950559;28;20103;-82
2022/04/24 05:50:48;;;;;;;0.00;0.00;;;;;;;;;;4947629;28;20118;-83
2022/04/24 05:53:14;;;;;;;0.10;0.10;;;;;;;;;;4949067;28;20045;-83
2022/04/24 05:55:41;;;;;;;0.10;0.10;;;;;;;;;;4947685;28;20048;-83
2022/04/24 05:58:07;;;;;;;0.28;0.22;;;;;;;;;;4944351;28;20044;-82
2022/04/24 06:00:33;;;;;;;0.00;0.00;;;;;;;;;;4948402;28;20039;-82
2022/04/24 06:03:00;;;;;;;0.07;0.07;;;;;;;;;;4949161;28;20859;-82
2022/04/24 06:05:27;;;;;;;0.00;0.00;;;;;;;;;;4948949;28;20913;-82
2022/04/24 06:07:53;;;;;;;0.10;0.10;;;;;;;;;;4947670;28;20031;-82
2022/04/24 06:10:19;;;;;;;0.13;0.13;;;;;;;;;;4946329;28;20026;-82
2022/04/24 06:12:52;;;;;;;0.00;0.00;;;;;;;;;;4946018;28;20031;-82
2022/04/24 06:15:21;;;;;;;0.10;0.10;;;;;;;;;;4950291;28;20117;-82
2022/04/24 06:17:49;;;;;;;0.10;0.10;;;;;;;;;;4946013;28;20043;-82
2022/04/24 06:20:16;;;;;;;0.10;0.10;;;;;;;;;;4947154;28;20051;-83
2022/04/24 06:22:43;;;;;;;0.10;0.10;;;;;;;;;;4947171;28;20031;-83
2022/04/24 06:25:10;;;;;;;0.10;0.10;;;;;;;;;;4944690;28;20058;-82
2022/04/24 06:27:36;;;;;;;0.10;0.10;;;;;;;;;;4948346;28;20085;-82
2022/04/24 06:30:02;;;;;;;0.10;0.10;;;;;;;;;;4948008;28;20508;-82
2022/04/24 06:32:34;;;;;;;0.15;0.15;;;;;;;;;;4947032;28;20077;-82
2022/04/24 06:35:03;;;;;;;0.10;0.10;;;;;;;;;;4946692;28;20035;-81
2022/04/24 06:37:29;;;;;;;0.10;0.10;;;;;;;;;;4946718;28;20042;-82
2022/04/24 06:39:55;;;;;;;0.10;0.10;;;;;;;;;;4927709;29;20043;-82
2022/04/24 06:42:22;;;;;;;0.10;0.10;;;;;;;;;;4949763;28;20743;-82
2022/04/24 06:44:49;;;;;;;0.10;0.10;;;;;;;;;;4948755;28;20035;-82
2022/04/24 06:47:15;;;;;;;0.10;0.10;;;;;;;;;;4945747;28;20100;-82
2022/04/24 06:49:41;;;;;;;0.03;0.03;;;;;;;;;;4946473;28;20117;-82
2022/04/24 06:52:07;;;;;;;0.00;0.00;;;;;;;;;;4943795;28;20178;-82
2022/04/24 06:54:33;;;;;;;0.10;0.10;;;;;;;;;;4947516;28;20101;-82
2022/04/24 06:57:01;;;;;;;0.00;0.00;;;;;;;;;;4948431;28;20571;-82
2022/04/24 06:59:28;;;;;;;0.10;0.10;;;;;;;;;;4946006;28;20050;-83
2022/04/24 07:01:54;;;;;;;0.00;0.00;;;;;;;;;;4947959;28;20050;-82
2022/04/24 07:04:20;;;;;;;0.00;0.00;;;;;;;;;;4957435;28;20042;-81
2022/04/24 07:06:46;;;;;;;0.10;0.10;;;;;;;;;;4944098;28;20412;-82
2022/04/24 07:09:12;;;;;;;0.00;0.00;;;;;;;;;;4948099;28;20042;-83
2022/04/24 07:11:40;;;;;;;0.10;0.10;;;;;;;;;;4946261;28;20035;-83
2022/04/24 07:14:06;;;;;;;0.10;0.10;;;;;;;;;;4945870;28;20046;-82
2022/04/24 07:16:34;;;;;;;0.10;0.10;;;;;;;;;;4947385;28;20031;-82
2022/04/24 07:19:00;;;;;;;0.10;0.10;;;;;;;;;;4942064;28;20082;-82
2022/04/24 07:21:26;;;;;;;0.10;0.10;;;;;;;;;;4946453;28;20050;-82
2022/04/24 07:23:52;;;;;;;0.10;0.10;;;;;;;;;;4945976;28;20031;-82
2022/04/24 07:26:18;;;;;;;0.10;0.10;;;;;;;;;;4945994;28;20082;-82
2022/04/24 07:28:44;;;;;;;0.10;0.10;;;;;;;;;;4945692;28;20378;-82
2022/04/24 07:31:14;;;;;;;0.10;0.10;;;;;;;;;;4945814;28;20047;-81
2022/04/24 07:33:40;;;;;;;0.10;0.10;;;;;;;;;;4949920;28;20054;-82
2022/04/24 07:36:06;;;;;;;0.10;0.10;;;;;;;;;;4951149;28;20034;-81
2022/04/24 07:38:32;;;;;;;0.10;0.10;;;;;;;;;;4954653;28;20694;-82
2022/04/24 07:40:59;;;;;;;0.20;0.20;;;;;;;;;;4957402;28;20299;-82
2022/04/24 07:43:25;;;;;;;0.13;0.13;;;;;;;;;;4949003;28;20266;-81
2022/04/24 07:45:51;;;;;;;0.10;0.10;;;;;;;;;;4947202;28;20039;-83
2022/04/24 07:48:17;;;;;;;0.00;0.00;;;;;;;;;;4951131;28;21162;-81
2022/04/24 07:50:45;;;;;;;0.38;0.38;;;;;;;;;;4951107;28;20035;-81
2022/04/24 07:53:11;;;;;;;0.10;0.10;;;;;;;;;;4949515;28;20130;-81
2022/04/24 07:55:40;;;;;;;0.73;0.73;;;;;;;;;;4950350;28;20412;-81
2022/04/24 07:58:06;;;;;;;0.65;0.65;;;;;;;;;;4945541;28;20051;-82
2022/04/24 08:00:33;;;;;;;0.63;0.63;;;;;;;;;;4950619;28;20039;-82
2022/04/24 08:03:01;;;;;;;0.20;0.20;;;;;;;;;;4950432;28;20734;-82
2022/04/24 08:05:30;;;;;;;0.30;0.30;;;;;;;;;;4950083;28;20050;-82
2022/04/24 08:07:56;;;;;;;0.15;0.15;;;;;;;;;;4949527;28;20125;-81
2022/04/24 08:10:23;;;;;;;1.85;0.45;;;;;;;;;;4960380;28;20039;-80
2022/04/24 08:12:49;;;;;;;0.10;0.10;;;;;;;;;;4946985;28;20031;-81
2022/04/24 08:15:16;;;;;;;0.10;0.10;;;;;;;;;;4951843;28;20039;-81
2022/04/24 08:17:42;;;;;;;0.10;0.10;;;;;;;;;;4948939;28;20073;-82
2022/04/24 08:20:09;;;;;;;0.10;0.10;;;;;;;;;;4948869;28;20047;-81
2022/04/24 08:22:39;;;;;;;0.10;0.10;;;;;;;;;;4948465;28;20090;-83
2022/04/24 08:25:06;;;;;;;0.10;0.10;;;;;;;;;;4960350;28;20139;-82
2022/04/24 08:27:33;;;;;;;0.10;0.10;;;;;;;;;;4948572;28;20059;-82
2022/04/24 08:29:59;;;;;;;0.00;0.00;;;;;;;;;;4949815;28;20508;-82
2022/04/24 08:32:26;;;;;;;;;;;;;;;;;;4949320;28;20038;-81
2022/04/24 08:34:52;;;;;;;0.20;0.20;;;;;;;;;;4949343;28;19915;-83
2022/04/24 08:37:18;;;;;;;0.10;0.10;;;;;;;;;;4949414;28;20031;-83
2022/04/24 08:39:44;;;;;;;4.60;0.73;;;;;;;;;;4947966;28;20090;-84
2022/04/24 08:42:11;;;;;;;0.10;0.10;;;;;;;;;;4950635;28;20035;-82
2022/04/24 08:44:37;;;;;;;0.10;0.10;;;;;;;;;;4949359;28;20066;-83
2022/04/24 08:47:03;;;;;;;0.10;0.10;;;;;;;;;;4955313;28;20040;-82
2022/04/24 08:49:31;;;;;;;0.03;0.03;;;;;;;;;;4948484;28;20113;-82
2022/04/24 08:51:59;;;;;;;0.10;0.10;;;;;;;;;;4929518;29;20551;-82
2022/04/24 08:54:27;;;;;;;0.30;0.30;;;;;;;;;;4946974;28;20451;-82
2022/04/24 08:56:56;;;;;;;0.10;0.10;;;;;;;;;;4949002;28;20034;-82
2022/04/24 08:59:23;;;;;;;0.10;0.10;;;;;;;;;;4946917;28;20042;-83
2022/04/24 09:01:50;;;;;;;0.70;0.70;;;;;;;;;;4948136;28;20034;-82
2022/04/24 09:04:16;;;;;;;0.10;0.10;;;;;;;;;;4947098;28;20043;-83
2022/04/24 09:06:42;;;;;;;0.47;0.47;;;;;;;;;;4947908;28;20876;-83
2022/04/24 09:09:09;;;;;;;1.20;1.10;;;;;;;;;;4949447;28;20023;-82
2022/04/24 09:11:35;;;;;;;;;;;;;;;;;;4948667;28;20077;-82
2022/04/24 09:14:15;;;;;;;0.70;0.70;;;;;;;;;;4948511;28;20662;-82
2022/04/24 09:16:53;;;;;;;1.00;1.00;;;;;;;;;;4948183;28;20034;-82
2022/04/24 09:19:21;;;;;;;0.52;0.52;;;;;;;;;;4946794;28;20081;-82
2022/04/24 09:21:47;;;;;;;1.00;1.00;;;;;;;;;;4945274;28;20047;-82
2022/04/24 09:24:14;;;;;;;0.77;0.68;;;;;;;;;;4949741;28;20118;-82
2022/04/24 09:26:56;;;;;;;1.48;1.38;;;;;;;;;;4948363;28;20405;-82
2022/04/24 09:29:23;;;;;;;1.67;0.82;;;;;;;;;;4950759;28;20809;-82
2022/04/24 09:31:49;;;;;;;1.35;1.25;;;;;;;;;;4947263;28;20174;-83
2022/04/24 09:34:19;;;;;;;2.75;2.30;;;;;;;;;;4946141;28;20043;-82
2022/04/24 09:36:46;;;;;;;0.77;0.77;;;;;;;;;;4946817;28;20035;-82
2022/04/24 09:39:13;;;;;;;3.60;1.90;;;;;;;;;;4949413;28;20033;-82
2022/04/24 09:41:39;;;;;;;1.42;1.33;;;;;;;;;;4948097;28;20951;-82
2022/04/24 09:44:12;;;;;;;2.60;2.17;;;;;;;;;;4947829;28;20122;-82
2022/04/24 09:46:38;;;;;;;6.07;2.83;;;;;;;;;;4947840;28;20030;-83
2022/04/24 09:49:06;;;;;;;0.47;0.47;;;;;;;;;;4944536;28;20042;-82
2022/04/24 09:51:36;;;;;;;1.13;1.13;;;;;;;;;;4949628;28;20035;-82
2022/04/24 09:54:02;;;;;;;3.85;3.05;;;;;;;;;;4949112;28;20087;-83
2022/04/24 09:56:29;;;;;;;0.70;0.70;;;;;;;;;;4947425;28;20035;-83
2022/04/24 09:58:56;;;;;;;3.85;1.63;;;;;;;;;;4949349;28;20031;-82
2022/04/24 10:01:22;;;;;;;1.42;1.27;;;;;;;;;;4946540;28;20037;-82
2022/04/24 10:03:49;;;;;;;2.17;2.03;;;;;;;;;;4945297;28;20035;-83
2022/04/24 10:06:17;;;;;;;1.27;1.17;;;;;;;;;;4949313;28;20048;-82
2022/04/24 10:08:43;;;;;;;1.13;1.13;;;;;;;;;;4946821;28;20039;-83
2022/04/24 10:11:09;;;;;;;1.27;1.17;;;;;;;;;;4947174;28;20082;-83
2022/04/24 10:13:37;;;;;;;0.85;0.82;;;;;;;;;;4947257;28;20117;-83
2022/04/24 10:16:23;;;;;;;1.48;1.25;;;;;;;;;;4943855;28;20337;-82
2022/04/24 10:18:49;;;;;;;;;;;;;;;;;;4944639;28;20532;-82
2022/04/24 10:21:42;;;;;;;2.97;2.00;;;;;;;;;;4943986;29;19915;-82
2022/04/24 10:24:11;;;;;;;1.08;1.08;;;;;;;;;;4890347;29;20044;-81
2022/04/24 10:26:38;;;;;;;2.17;1.55;;;;;;;;;;4890084;29;20154;-82
2022/04/24 10:29:08;;;;;;;2.63;1.80;;;;;;;;;;4889267;29;20532;-82
2022/04/24 10:31:47;;;;;;;1.85;1.75;;;;;;;;;;4889164;29;20117;-82
2022/04/24 10:34:14;;;;;;;1.80;1.70;;;;;;;;;;4887096;29;20044;-82
2022/04/24 10:36:59;;;;;;;1.40;1.30;;;;;;;;;;4886873;29;20474;-82
2022/04/24 10:39:28;;;;;;;1.65;1.55;;;;;;;;;;4900786;29;20115;-81
2022/04/24 10:41:55;;;;;;;1.70;1.60;;;;;;;;;;4889743;29;20048;-82
2022/04/24 10:44:22;;;;;;;;;;;;;;;;;;4890000;29;20123;-82
2022/04/24 10:46:49;;;;;;;2.78;1.85;;;;;;;;;;4889895;29;19922;-83
2022/04/24 10:49:15;;;;;;;;;;;;;;;;;;4887473;29;20644;-82
2022/04/24 10:51:42;;;;;;;1.15;1.15;;;;;;;;;;4887274;29;19915;-84
2022/04/24 10:54:09;;;;;;;5.75;2.92;;;;;;;;;;4889828;29;20149;-82
2022/04/24 10:56:36;;;;;;;0.95;0.95;;;;;;;;;;4885895;29;20060;-81
2022/04/24 10:59:08;;;;;;;2.35;1.55;;;;;;;;;;4882751;29;20069;-83
2022/04/24 11:01:38;;;;;;;0.95;0.95;;;;;;;;;;4926333;28;20161;-82
2022/04/24 11:04:08;;;;;;;1.55;1.48;;;;;;;;;;4943010;28;20509;-81
2022/04/24 11:06:34;;;;;;;0.60;0.60;;;;;;;;;;4947333;28;20066;-82
2022/04/24 11:09:11;;;;;;;1.67;1.58;;;;;;;;;;4949012;28;20024;-82
2022/04/24 11:11:55;;;;;;;2.95;1.80;;;;;;;;;;4946744;28;20493;-81
2022/04/24 11:14:22;;;;;;;2.33;1.35;;;;;;;;;;4946914;28;20122;-83
2022/04/24 11:16:57;;;;;;;1.55;1.42;;;;;;;;;;4945917;28;20031;-82
2022/04/24 11:19:27;;;;;;;3.60;1.17;;;;;;;;;;4957454;28;20841;-82
2022/04/24 11:21:56;;;;;;;0.93;0.93;;;;;;;;;;4943449;28;20564;-83
2022/04/24 11:24:23;;;;;;;2.17;1.95;;;;;;;;;;4949668;28;20560;-82
2022/04/24 11:26:49;;;;;;;1.85;1.75;;;;;;;;;;4946377;28;20031;-81
2022/04/24 11:29:15;;;;;;;0.90;0.90;;;;;;;;;;4950258;28;20042;-82
2022/04/24 11:31:52;;;;;;;0.88;0.88;;;;;;;;;;4958753;28;20030;-81
2022/04/24 11:34:19;;;;;;;1.67;1.58;;;;;;;;;;4943612;28;20335;-81
2022/04/24 11:36:45;;;;;;;1.23;1.23;;;;;;;;;;4945296;28;20031;-81
2022/04/24 11:39:12;;;;;;;0.95;0.95;;;;;;;;;;4947256;28;20094;-81
2022/04/24 11:41:39;;;;;;;6.07;3.10;;;;;;;;;;4946004;28;20039;-81
2022/04/24 11:52:29;;;;;;;1.92;1.83;;;;;;;;;;4885404;29;20924;-80
2022/04/24 11:54:55;;;;;;;0.80;0.80;;;;;;;;;;4884564;29;20032;-82
2022/04/24 11:57:22;;;;;;;1.02;1.02;;;;;;;;;;4889385;29;20057;-82
2022/04/24 11:59:52;;;;;;;2.17;1.20;;;;;;;;;;4888966;29;20067;-82
2022/04/24 12:02:18;;;;;;;0.73;0.73;;;;;;;;;;4888855;29;20357;-83
2022/04/24 12:04:44;;;;;;;1.17;1.15;;;;;;;;;;4888678;29;20146;-82
2022/04/24 12:07:11;;;;;;;1.30;1.20;;;;;;;;;;4886162;29;20039;-82
2022/04/24 12:09:38;;;;;;;0.80;0.80;;;;;;;;;;4887129;29;20064;-81
2022/04/24 12:12:05;;;;;;;;;;;;;;;;;;4888970;29;20403;-82
2022/04/24 12:14:31;;;;;;;0.63;0.63;;;;;;;;;;4888731;29;19918;-81
2022/04/24 12:17:01;;;;;;;0.10;0.10;;;;;;;;;;4890638;29;20053;-82
2022/04/24 12:19:27;;;;;;;0.30;0.30;;;;;;;;;;4891358;29;20044;-82
2022/04/24 12:21:54;;;;;;;0.10;0.10;;;;;;;;;;4889147;29;20043;-81
2022/04/24 12:24:21;;;;;;;0.28;0.25;;;;;;;;;;4931430;29;20497;-82
2022/04/24 12:26:51;;;;;;;0.20;0.20;;;;;;;;;;4949873;28;20116;-82
2022/04/24 12:29:17;;;;;;;0.50;0.50;;;;;;;;;;4949609;28;20035;-83
2022/04/24 12:31:44;;;;;;;0.60;0.60;;;;;;;;;;4948361;28;20177;-82
2022/04/24 12:34:10;;;;;;;0.10;0.10;;;;;;;;;;4947710;28;20283;-81
2022/04/24 12:36:47;;;;;;;0.30;0.30;;;;;;;;;;4949928;28;20051;-82
2022/04/24 12:39:13;;;;;;;0.73;0.73;;;;;;;;;;4951194;28;20141;-82
2022/04/24 12:41:39;;;;;;;0.38;0.38;;;;;;;;;;4949299;28;20035;-82
2022/04/24 12:44:05;;;;;;;;;;;;;;;;;;4948918;28;20053;-81
2022/04/24 12:46:32;;;;;;;0.40;0.40;;;;;;;;;;4944434;28;19962;-81
2022/04/24 12:48:58;;;;;;;0.52;0.52;;;;;;;;;;4929760;29;20031;-82
2022/04/24 12:51:25;;;;;;;0.22;0.22;;;;;;;;;;4951783;28;20027;-82
2022/04/24 12:53:51;;;;;;;0.47;0.47;;;;;;;;;;4949224;28;20043;-83
2022/04/24 12:56:18;;;;;;;0.65;0.65;;;;;;;;;;4948992;28;20035;-82
2022/04/24 12:58:44;;;;;;;0.38;0.38;;;;;;;;;;4948972;28;20037;-82
2022/04/24 13:01:12;;;;;;;0.80;0.80;;;;;;;;;;4945654;28;20473;-81
2022/04/24 13:03:39;;;;;;;1.38;0.70;;;;;;;;;;4949651;28;20035;-83
2022/04/24 13:06:07;;;;;;;0.60;0.60;;;;;;;;;;4949235;28;20123;-82
2022/04/24 13:08:33;;;;;;;3.40;1.65;;;;;;;;;;4947442;28;20037;-81
2022/04/24 13:10:59;;;;;;;0.30;0.30;;;;;;;;;;4943467;28;20123;-82
2022/04/24 13:13:25;;;;;;;0.30;0.30;;;;;;;;;;4947918;28;20101;-82
2022/04/24 13:18:37;;;;;;;3.10;2.10;;;;;;;;;;4944426;28;20062;-82
2022/04/24 13:21:03;;;;;;;0.45;0.45;;;;;;;;;;4950957;28;20516;-82
2022/04/24 13:23:29;;;;;;;0.75;0.75;;;;;;;;;;4946722;28;20081;-82
2022/04/24 13:25:55;;;;;;;0.45;0.45;;;;;;;;;;4947427;28;20564;-82
2022/04/24 13:28:21;;;;;;;1.02;0.93;;;;;;;;;;4946161;28;20031;-82
2022/04/24 13:30:49;;;;;;;2.27;1.73;;;;;;;;;;4946696;28;20034;-83
2022/04/24 13:33:16;;;;;;;1.02;1.02;;;;;;;;;;4950098;28;20560;-82
2022/04/24 13:35:43;;;;;;;1.77;1.38;;;;;;;;;;4948125;28;20812;-82
2022/04/24 13:38:18;;;;;;;1.52;1.42;;;;;;;;;;4947914;28;20035;-82
2022/04/24 13:40:49;;;;;;;1.70;0.82;;;;;;;;;;4947950;28;20129;-82
2022/04/24 13:43:15;;;;;;;2.08;1.75;;;;;;;;;;4945762;28;20122;-82
2022/04/24 13:45:41;;;;;;;1.60;1.00;;;;;;;;;;4947554;28;20039;-81
2022/04/24 13:48:07;;;;;;;0.90;0.90;;;;;;;;;;4948925;28;20041;-82
2022/04/24 13:50:35;;;;;;;1.50;1.40;;;;;;;;;;4947865;28;20071;-81
2022/04/24 13:53:02;;;;;;;2.10;2.00;;;;;;;;;;4947679;28;20027;-82
2022/04/24 13:55:29;;;;;;;1.55;1.45;;;;;;;;;;4945685;28;20035;-81
2022/04/24 13:57:56;;;;;;;1.73;1.60;;;;;;;;;;4943890;28;20030;-81
2022/04/24 14:00:23;;;;;;;1.92;1.83;;;;;;;;;;4949942;28;20626;-81
2022/04/24 14:02:50;;;;;;;5.68;2.03;;;;;;;;;;4947536;28;20480;-81
2022/04/24 14:05:16;;;;;;;1.65;1.50;;;;;;;;;;4947640;28;20111;-80
2022/04/24 14:07:43;;;;;;;3.47;3.10;;;;;;;;;;4947254;28;20586;-82
2022/04/24 14:10:09;;;;;;;2.15;1.15;;;;;;;;;;4944178;28;20560;-81
2022/04/24 14:12:35;;;;;;;2.60;1.48;;;;;;;;;;4948575;28;20097;-80
2022/04/24 14:15:01;;;;;;;1.92;1.83;;;;;;;;;;4955803;28;20118;-80
2022/04/24 14:17:28;;;;;;;1.13;1.13;;;;;;;;;;4950933;28;20058;-82
2022/04/24 14:19:54;;;;;;;5.38;1.90;;;;;;;;;;4945808;28;20802;-81
2022/04/24 14:22:20;;;;;;;2.27;1.87;;;;;;;;;;4945194;28;20506;-82
2022/04/24 14:24:46;;;;;;;1.38;1.35;;;;;;;;;;4946564;28;20030;-82
2022/04/24 14:27:17;;;;;;;2.40;2.20;;;;;;;;;;4948392;28;20031;-82
2022/04/24 14:29:43;;;;;;;3.55;2.97;;;;;;;;;;4946757;28;20042;-81
2022/04/24 14:32:12;;;;;;;1.58;1.48;;;;;;;;;;4946638;28;20078;-82
2022/04/24 14:34:38;;;;;;;2.40;2.20;;;;;;;;;;4946361;28;20357;-82
2022/04/24 14:37:04;;;;;;;2.63;2.45;;;;;;;;;;4943368;28;20639;-81
2022/04/24 14:39:30;;;;;;;2.27;2.00;;;;;;;;;;4947670;28;20118;-82
2022/04/24 14:41:57;;;;;;;2.47;1.87;;;;;;;;;;4958991;28;20090;-82
2022/04/24 14:44:23;;;;;;;;;;;;;;;;;;4946780;28;20063;-81
2022/04/24 14:57:49;;;;;;;0.93;0.93;;;;;;;;;;4945366;28;20078;-81
2022/04/24 15:00:15;;;;;;;0.82;0.82;;;;;;;;;;4947049;28;20051;-81
2022/04/24 15:02:42;;;;;;;2.55;1.27;;;;;;;;;;4943085;28;20571;-81
2022/04/24 15:05:09;;;;;;;;;;;;;;;;;;4946563;28;20071;-81
2022/04/24 15:07:35;;;;;;;1.63;1.48;;;;;;;;;;4946638;28;20611;-81